createdAt,value
2022-10-31T01:48:32.446Z,98165.13
2022-10-31T01:52:39.705Z,98161.53
2022-10-31T01:56:48.511Z,98154.50
2022-10-31T02:00:56.055Z,98154.50
2022-10-31T02:05:04.043Z,98147.31
2022-10-31T02:09:08.673Z,98152.53
2022-10-31T02:13:14.500Z,98149.91
2022-10-31T02:17:18.184Z,98160.06
2022-10-31T02:21:31.187Z,98160.72
2022-10-31T02:30:10.107Z,98157.94
2022-10-31T02:34:20.326Z,98143.41
2022-10-31T02:38:32.344Z,98160.56
2022-10-31T02:42:42.902Z,98159.56
2022-10-31T02:46:51.327Z,98163.03
2022-10-31T02:51:00.616Z,98154.34
2022-10-31T02:55:13.507Z,98156.00
2022-10-31T02:59:17.169Z,98162.19
2022-10-31T03:03:27.093Z,98164.34
2022-10-31T03:07:42.252Z,98162.19
2022-10-31T03:11:52.167Z,98161.84
2022-10-31T03:16:03.917Z,98162.00
2022-10-31T03:20:12.351Z,98158.59
2022-10-31T03:24:18.962Z,98164.78
2022-10-31T03:28:29.134Z,98173.44
2022-10-31T03:32:37.784Z,98171.97
2022-10-31T03:36:43.420Z,98177.22
2022-10-31T03:40:50.672Z,98170.31
2022-10-31T03:44:59.501Z,98173.91
2022-10-31T03:49:03.741Z,98171.31
2022-10-31T03:53:12.456Z,98183.59
2022-10-31T03:57:26.219Z,98186.34
2022-10-31T04:01:33.119Z,98165.41
2022-10-31T04:05:38.595Z,98173.44
2022-10-31T04:09:46.933Z,98171.78
2022-10-31T04:13:52.857Z,98177.84
2022-10-31T04:18:01.610Z,98179.47
2022-10-31T04:22:05.108Z,98169.84
2022-10-31T04:26:09.157Z,98169.84
2022-10-31T04:30:14.704Z,98178.34
2022-10-31T04:34:18.365Z,98178.16
2022-10-31T04:38:21.977Z,98178.00
2022-10-31T04:42:25.109Z,98189.81
2022-10-31T04:46:29.567Z,98182.59
2022-10-31T04:50:33.189Z,98184.06
2022-10-31T04:54:36.789Z,98180.34
2022-10-31T04:58:39.831Z,98181.13
2022-10-31T05:02:48.791Z,98183.75
2022-10-31T05:06:52.796Z,98180.66
2022-10-31T05:10:57.342Z,98192.25
2022-10-31T05:15:04.590Z,98189.28
2022-10-31T05:19:09.490Z,98188.81
2022-10-31T05:23:13.375Z,98189.28
2022-10-31T05:27:17.098Z,98191.38
2022-10-31T05:31:20.218Z,98190.22
2022-10-31T05:35:26.778Z,98188.59
2022-10-31T05:39:30.338Z,98192.47
2022-10-31T05:43:33.911Z,98196.75
2022-10-31T05:47:37.091Z,98187.94
2022-10-31T05:51:41.537Z,98202.63
2022-10-31T05:55:45.790Z,98201.66
2022-10-31T05:59:53.934Z,98202.63
2022-10-31T06:03:58.057Z,98191.38
2022-10-31T06:08:04.087Z,98197.41
2022-10-31T06:12:08.290Z,98202.13
2022-10-31T06:16:11.381Z,98206.69
2022-10-31T06:20:14.951Z,98202.28
2022-10-31T06:24:19.968Z,98210.78
2022-10-31T06:28:22.987Z,98208.84
2022-10-31T06:32:26.456Z,98213.75
2022-10-31T06:36:30.094Z,98210.97
2022-10-31T06:40:34.554Z,98220.28
2022-10-31T06:44:38.154Z,98232.06
2022-10-31T06:48:42.799Z,98231.59
2022-10-31T06:52:46.504Z,98232.75
2022-10-31T06:56:51.209Z,98244.22
2022-10-31T07:00:54.707Z,98238.19
2022-10-31T07:04:57.796Z,98234.09
2022-10-31T07:09:01.442Z,98236.94
2022-10-31T07:13:08.202Z,98239.41
2022-10-31T07:17:11.250Z,98243.00
2022-10-31T07:21:14.742Z,98241.06
2022-10-31T07:25:17.838Z,98243.38
2022-10-31T07:29:22.293Z,98231.91
2022-10-31T07:33:27.943Z,98237.19
2022-10-31T07:37:31.040Z,98245.19
2022-10-31T07:41:34.606Z,98238.78
2022-10-31T07:45:39.080Z,98233.22
2022-10-31T07:49:42.580Z,98232.44
2022-10-31T07:53:45.833Z,98231.28
2022-10-31T07:57:48.877Z,98227.66
2022-10-31T08:01:53.404Z,98228.50
2022-10-31T08:05:56.378Z,98236.31
2022-10-31T08:09:59.971Z,98233.53
2022-10-31T08:14:03.535Z,98230.59
2022-10-31T08:18:08.892Z,98224.53
2022-10-31T08:22:12.452Z,98222.88
2022-10-31T08:26:16.045Z,98217.44
2022-10-31T08:30:19.522Z,98218.44
2022-10-31T08:34:27.090Z,98214.28
2022-10-31T08:38:31.413Z,98212.09
2022-10-31T08:42:34.596Z,98206.16
2022-10-31T08:46:38.067Z,98210.69
2022-10-31T08:50:43.678Z,98205.34
2022-10-31T08:54:46.715Z,98204.75
2022-10-31T08:58:50.522Z,98195.34
2022-10-31T09:02:58.384Z,98192.25
2022-10-31T09:11:26.297Z,98192.25
2022-10-31T09:15:30.971Z,98190.72
2022-10-31T09:19:33.897Z,98178.78
2022-10-31T09:23:38.788Z,98177.53
2022-10-31T09:27:42.274Z,98175.84
2022-10-31T09:31:45.718Z,98178.16
2022-10-31T09:35:49.102Z,98173.25
2022-10-31T09:39:54.171Z,98166.38
2022-10-31T09:44:07.494Z,98161.88
2022-10-31T09:48:30.244Z,98162.28
2022-10-31T09:52:37.185Z,98151.66
2022-10-31T09:56:41.658Z,98148.03
2022-10-31T10:00:46.938Z,98144.50
2022-10-31T10:04:59.430Z,98151.13
2022-10-31T10:09:03.664Z,98144.09
2022-10-31T10:13:34.949Z,98147.66
2022-10-31T10:17:44.832Z,98136.16
2022-10-31T10:21:53.972Z,98134.56
2022-10-31T10:26:08.722Z,98131.16
2022-10-31T10:30:20.239Z,98128.16
2022-10-31T10:34:29.148Z,98128.38
2022-10-31T10:38:38.771Z,98119.88
2022-10-31T10:42:59.859Z,98114.22
2022-10-31T10:47:22.597Z,98108.38
2022-10-31T10:51:54.739Z,98096.81
2022-10-31T10:56:06.242Z,98092.75
2022-10-31T11:00:23.108Z,98083.03
2022-10-31T11:04:33.266Z,98080.63
2022-10-31T11:08:39.796Z,98076.81
2022-10-31T11:12:43.877Z,98075.41
2022-10-31T11:16:50.132Z,98069.97
2022-10-31T11:20:57.193Z,98064.06
2022-10-31T11:25:00.817Z,98058.19
2022-10-31T11:29:05.469Z,98056.56
2022-10-31T11:33:18.538Z,98050.28
2022-10-31T11:37:26.079Z,98040.53
2022-10-31T11:41:32.882Z,98038.28
2022-10-31T11:45:37.962Z,98038.09
2022-10-31T11:49:44.193Z,98030.78
2022-10-31T11:53:57.048Z,98026.72
2022-10-31T11:58:04.078Z,98021.84
2022-10-31T12:02:21.804Z,98018.59
2022-10-31T12:06:31.087Z,98011.69
2022-10-31T12:10:44.845Z,98015.38
2022-10-31T12:15:02.168Z,98007.06
2022-10-31T12:19:08.954Z,97990.81
2022-10-31T12:23:21.370Z,97981.69
2022-10-31T12:27:38.211Z,97988.38
2022-10-31T12:32:14.486Z,97976.38
2022-10-31T12:36:41.497Z,97968.06
2022-10-31T12:41:04.728Z,97962.56
2022-10-31T12:45:33.286Z,97956.91
2022-10-31T12:49:47.517Z,97956.28
2022-10-31T12:54:05.429Z,97948.78
2022-10-31T12:58:14.742Z,97946.91
2022-10-31T13:02:24.775Z,97937.78
2022-10-31T13:12:21.825Z,97920.13
2022-10-31T13:16:29.183Z,97913.41
2022-10-31T13:20:37.615Z,97912.63
2022-10-31T13:24:45.379Z,97911.00
2022-10-31T13:29:03.515Z,97905.94
2022-10-31T13:33:15.316Z,97914.88
2022-10-31T13:37:31.082Z,97907.34
2022-10-31T13:41:43.002Z,97908.34
2022-10-31T13:45:53.608Z,97902.69
2022-10-31T13:50:08.251Z,97906.72
2022-10-31T13:54:25.748Z,97905.41
2022-10-31T13:58:31.661Z,97892.63
2022-10-31T14:02:37.983Z,97890.34
2022-10-31T14:06:49.297Z,97881.19
2022-10-31T14:10:57.301Z,97883.97
2022-10-31T14:15:05.239Z,97885.09
2022-10-31T14:19:15.361Z,97881.13
2022-10-31T14:23:41.877Z,97873.94
2022-10-31T14:27:49.454Z,97873.41
2022-10-31T14:31:56.356Z,97871.88
2022-10-31T14:36:04.012Z,97876.06
2022-10-31T14:40:20.188Z,97853.53
2022-10-31T14:45:04.138Z,97864.59
2022-10-31T14:49:35.704Z,97862.72
2022-10-31T14:53:49.186Z,97863.63
2022-10-31T14:57:56.636Z,97859.72
2022-10-31T15:02:04.314Z,97856.78
2022-10-31T15:06:15.708Z,97851.41
2022-10-31T15:10:23.855Z,97850.63
2022-10-31T15:14:29.332Z,97854.28
2022-10-31T15:18:34.033Z,97848.28
2022-10-31T15:22:38.026Z,97841.41
2022-10-31T15:26:43.851Z,97843.84
2022-10-31T15:30:57.874Z,97851.72
2022-10-31T15:35:12.400Z,97849.09
2022-10-31T15:39:16.312Z,97857.97
2022-10-31T15:43:20.155Z,97843.81
2022-10-31T15:47:26.418Z,97849.69
2022-10-31T15:51:37.304Z,97839.00
2022-10-31T15:55:52.282Z,97842.00
2022-10-31T15:59:56.190Z,97838.16
2022-10-31T16:04:05.432Z,97838.41
2022-10-31T16:08:27.303Z,97842.25
2022-10-31T16:12:34.604Z,97849.34
2022-10-31T16:16:44.817Z,97841.56
2022-10-31T16:20:54.164Z,97847.81
2022-10-31T16:25:03.936Z,97852.13
2022-10-31T16:29:07.151Z,97851.19
2022-10-31T16:33:27.812Z,97845.63
2022-10-31T16:37:31.459Z,97846.31
2022-10-31T16:41:41.164Z,97839.81
2022-10-31T16:45:47.082Z,97835.91
2022-10-31T16:49:51.354Z,97845.88
2022-10-31T16:53:55.244Z,97847.06
2022-10-31T16:58:01.164Z,97846.25
2022-10-31T17:02:06.957Z,97840.53
2022-10-31T17:06:14.980Z,97864.06
2022-10-31T17:10:19.259Z,97856.41
2022-10-31T17:14:24.073Z,97866.69
2022-10-31T17:18:27.948Z,97859.84
2022-10-31T17:22:31.946Z,97863.91
2022-10-31T17:26:35.557Z,97866.34
2022-10-31T17:30:41.184Z,97867.47
2022-10-31T17:34:44.470Z,97855.66
2022-10-31T17:38:48.024Z,97860.22
2022-10-31T17:42:52.578Z,97856.09
2022-10-31T17:46:58.449Z,97847.56
2022-10-31T17:51:02.734Z,97854.09
2022-10-31T17:55:06.705Z,97855.38
2022-10-31T17:59:10.073Z,97849.78
2022-10-31T18:03:15.022Z,97832.94
2022-10-31T18:07:19.476Z,97836.84
2022-10-31T18:11:23.865Z,97842.53
2022-10-31T18:15:28.329Z,97841.56
2022-10-31T18:19:32.736Z,97846.47
2022-10-31T18:23:36.192Z,97844.47
2022-10-31T18:27:39.166Z,97833.00
2022-10-31T18:31:42.543Z,97831.19
2022-10-31T18:35:47.070Z,97837.09
2022-10-31T18:39:50.574Z,97865.88
2022-10-31T18:43:56.395Z,97859.81
2022-10-31T18:48:00.096Z,97841.31
2022-10-31T18:52:04.982Z,97830.03
2022-10-31T18:56:10.728Z,97829.22
2022-10-31T19:00:15.207Z,97838.06
